Cle Elum, WA (98922)

6:46 AM PDT on April 27, 2017 (GMT -0700)
Cle Elum-Roslyn High School | | Change Station
Active Advisory: Wind Advisory

Elev 2107 ft 47.20 °N, 120.97 °W | Updated 9 minutes ago

Partly Cloudy
Partly Cloudy
37.9 °F
Feels Like 34 °F
N
5.0
Wind Variable Wind from NNW

Today
High -- | Low -- °F
--% Chance of Precip.
Yesterday
High -- | Low -- °F
Precip. -- in
Pressure 29.93 in
Visibility 10.0 miles
Clouds Clear
Windchill 34 °F
Dew Point 31 °F
Humidity 76%
Rainfall 0.03 in
Snow Depth Not available.
5:53 AM 8:09 PM
New Moon, 2% visible
METAR KELN 271253Z AUTO 29013KT 10SM CLR 04/M01 A2991 RMK AO2 SLP135 T00391006
Pressure 29.93 in
Visibility 10.0 miles
Clouds Clear
Windchill 34 °F
Dew Point 31 °F
Humidity 76%
Rainfall 0.03 in
Snow Depth Not available.
5:53 AM 8:09 PM
New Moon, 2% visible
METAR KELN 271253Z AUTO 29013KT 10SM CLR 04/M01 A2991 RMK AO2 SLP135 T00391006

Get Your Daily Forecast Email!

Thanks for signing up!

Be on the lookout for a verification email in your inbox.

You'll start receiving severe weather alerts in your inbox..

×

10-Day Weather Forecast

Almanac

Astronomy

Apr. 27, 2017 Rise Set
Actual Time
Civil Twilight
Nautical Twilight
Astronomical Twilight
Moon
Length of Visible Light
Length of Day
Tomorrow will be .
, % of the Moon is Illuminated

Today's Extremes

State Highs State Lows

Community

WunderPhotos

WunderBlog® & News

Nearby

Air Quality

  Air Quality AQ Index Pollutant
Not available.

Snow Depth

Station Depth Elevation

Earthquake Activity

City Distance Mag. Time & Date
Minimum magnitude displayed is 2.5.

Coastal Water Temperatures

Place Temperature

Stations

Nearby Weather Stations

Station Location Temp. Windchill Dew Point Humidity Wind Precip. Elev Updated Type
                   

Watches & Warnings

Wind Advisory
Issued: 10:32 PM PDT Apr. 26, 2017 – National Weather Service

... Wind Advisory remains in effect until 9 PM PDT Thursday...

* winds... northwest 25 to 35 mph with gusts up to 45 mph.

* Timing... winds will remain strong tonight into Thursday.

* Impacts... strong winds may blow down limbs, trees, and power
lines.

Precautionary/preparedness actions...

A Wind Advisory means that winds of 35 mph with higher gusts are
expected. Winds this strong can make driving difficult...
especially for high profile vehicles. Use extra caution.